Time;durP1;ratioP1;P1;durP2;ratioP2;P2;SDS_P1;SDS_P2;PMS_P1;PMS_P2;Temp;Humidity;BMP_temperature;BMP_pressure;BME280_temperature;BME280_humidity;BME280_pressure;Samples;Min_cycle;Max_cycle;Signal;HPM_P1;HPM_P2
2022/08/01 00:01:05;;;;;;;;;;;;;;;;;;6194285;23;19911;-84
2022/08/01 00:03:30;;;;;;;;;;;;;;;;;;6194044;23;19951;-84
2022/08/01 00:05:56;;;;;;;;;;;;;;;;;;6193877;23;19912;-84
2022/08/01 00:08:22;;;;;;;;;;;;;;;;;;6194443;23;19943;-85
2022/08/01 00:10:47;;;;;;;;;;;;;;;;;;6218673;23;19919;-84
2022/08/01 00:13:16;;;;;;;;;;;;;;;;;;6193217;23;19915;-84
2022/08/01 00:15:41;;;;;;;;;;;;;;;;;;6219771;23;19919;-84
2022/08/01 00:18:07;;;;;;;;;;;;;;;;;;6192878;23;19951;-84
2022/08/01 00:20:33;;;;;;;;;;;;;;;;;;6192062;23;19911;-84
2022/08/01 00:22:58;;;;;;;;;;;;;;;;;;6184051;23;19919;-85
2022/08/01 00:25:24;;;;;;;;;;;;;;;;;;6195142;23;19899;-84
2022/08/01 00:27:50;;;;;;;;;;;;;;;;;;6217851;23;19915;-84
2022/08/01 00:30:15;;;;;;;;;;;;;;;;;;6193246;23;19931;-84
2022/08/01 00:32:42;;;;;;;;;;;;;;;;;;6188624;23;19954;-84
2022/08/01 00:35:07;;;;;;;;;;;;;;;;;;6189877;23;19918;-84
2022/08/01 00:37:33;;;;;;;;;;;;;;;;;;6188449;23;19915;-84
2022/08/01 00:39:59;;;;;;;;;;;;;;;;;;6189171;23;19927;-84
2022/08/01 00:42:24;;;;;;;;;;;;;;;;;;6187777;23;19935;-84
2022/08/01 00:44:51;;;;;;;;;;;;;;;;;;6188826;23;19922;-84
2022/08/01 00:47:17;;;;;;;;;;;;;;;;;;6176144;23;19938;-84
2022/08/01 00:49:42;;;;;;;;;;;;;;;;;;6189129;23;19911;-83
2022/08/01 00:52:08;;;;;;;;;;;;;;;;;;6189265;23;19919;-84
2022/08/01 00:54:34;;;;;;;;;;;;;;;;;;6189617;23;20313;-84
2022/08/01 00:57:00;;;;;;;;;;;;;;;;;;6188648;23;19927;-84
2022/08/01 00:59:25;;;;;;;;;;;;;;;;;;6187066;23;19912;-84
2022/08/01 01:01:51;;;;;;;;;;;;;;;;;;6189681;23;19915;-84
2022/08/01 01:04:17;;;;;;;;;;;;;;;;;;6189406;23;19935;-84
2022/08/01 01:06:55;;;;;;;;;;;;;;;;;;6184675;23;20302;-84
2022/08/01 01:09:27;;;;;;;;;;;;;;;;;;6238454;23;19943;-83
2022/08/01 01:12:06;;;;;;;;;;;;;;;;;;6213953;23;19912;-84
2022/08/01 01:14:53;;;;;;;;;;;;;;;;;;6213801;23;19938;-84
2022/08/01 01:17:20;;;;;;;;;;;;;;;;;;6214632;23;20272;-84
2022/08/01 01:19:48;;;;;;;;;;;;;;;;;;6188406;23;19915;-84
2022/08/01 01:22:13;;;;;;;;;;;;;;;;;;6188791;22;19915;-84
2022/08/01 01:24:59;;;;;;;;;;;;;;;;;;6212080;23;19965;-84
2022/08/01 01:27:29;;;;;;;;;;;;;;;;;;6238247;23;19935;-84
2022/08/01 01:29:56;;;;;;;;;;;;;;;;;;6188090;23;20230;-84
2022/08/01 01:32:33;;;;;;;;;;;;;;;;;;6190024;23;19983;-84
2022/08/01 01:34:58;;;;;;;;;;;;;;;;;;6216355;23;19919;-84
2022/08/01 01:37:25;;;;;;;;;;;;;;;;;;6215024;23;20326;-84
2022/08/01 01:39:51;;;;;;;;;;;;;;;;;;6187673;23;20300;-84
2022/08/01 01:42:17;;;;;;;;;;;;;;;;;;6188504;23;20341;-84
2022/08/01 01:44:44;;;;;;;;;;;;;;;;;;6190120;23;19938;-83
2022/08/01 01:47:09;;;;;;;;;;;;;;;;;;6191845;23;19911;-84
2022/08/01 01:49:35;;;;;;;;;;;;;;;;;;6191810;23;19919;-84
2022/08/01 01:52:01;;;;;;;;;;;;;;;;;;6192369;23;19927;-84
2022/08/01 01:54:34;;;;;;;;;;;;;;;;;;6191659;22;19925;-84
2022/08/01 01:57:00;;;;;;;;;;;;;;;;;;6192022;23;19919;-84
2022/08/01 01:59:26;;;;;;;;;;;;;;;;;;6190489;23;19911;-84
2022/08/01 02:01:52;;;;;;;;;;;;;;;;;;6187353;23;19935;-84
2022/08/01 02:04:18;;;;;;;;;;;;;;;;;;6182774;23;20267;-84
2022/08/01 02:06:44;;;;;;;;;;;;;;;;;;6217213;23;19939;-84
2022/08/01 02:09:10;;;;;;;;;;;;;;;;;;6192150;23;19978;-84
2022/08/01 02:11:37;;;;;;;;;;;;;;;;;;6192250;23;19911;-84
2022/08/01 02:14:03;;;;;;;;;;;;;;;;;;6178521;23;19911;-84
2022/08/01 02:16:30;;;;;;;;;;;;;;;;;;6192505;23;19946;-84
2022/08/01 02:18:56;;;;;;;;;;;;;;;;;;6180094;23;19915;-84
2022/08/01 02:21:28;;;;;;;;;;;;;;;;;;6184778;23;19911;-84
2022/08/01 02:24:01;;;;;;;;;;;;;;;;;;6216742;23;19919;-85
2022/08/01 02:26:26;;;;;;;;;;;;;;;;;;6178890;23;20368;-84
2022/08/01 02:29:03;;;;;;;;;;;;;;;;;;6183267;23;19927;-84
2022/08/01 02:31:28;;;;;;;;;;;;;;;;;;6190422;23;19983;-84
2022/08/01 02:33:56;;;;;;;;;;;;;;;;;;6190115;23;19911;-86
2022/08/01 02:36:22;;;;;;;;;;;;;;;;;;6190768;23;20329;-87
2022/08/01 02:38:47;;;;;;;;;;;;;;;;;;6217528;23;19939;-86
2022/08/01 02:41:14;;;;;;;;;;;;;;;;;;6181037;23;21583;-86
2022/08/01 02:43:41;;;;;;;;;;;;;;;;;;6187894;23;20375;-86
2022/08/01 02:46:07;;;;;;;;;;;;;;;;;;6192543;23;19919;-86
2022/08/01 02:48:33;;;;;;;;;;;;;;;;;;6193568;23;19912;-86
2022/08/01 02:51:00;;;;;;;;;;;;;;;;;;6185528;23;19955;-86
2022/08/01 02:53:26;;;;;;;;;;;;;;;;;;6191488;23;20282;-85
2022/08/01 02:55:51;;;;;;;;;;;;;;;;;;6188255;23;20268;-86
2022/08/01 02:58:17;;;;;;;;;;;;;;;;;;6189825;23;19982;-86
2022/08/01 03:00:44;;;;;;;;;;;;;;;;;;6185256;23;19920;-86
2022/08/01 03:03:11;;;;;;;;;;;;;;;;;;6187868;23;19922;-86
2022/08/01 03:05:37;;;;;;;;;;;;;;;;;;6190265;23;19912;-86
2022/08/01 03:08:03;;;;;;;;;;;;;;;;;;6191621;23;19980;-87
2022/08/01 03:10:28;;;;;;;;;;;;;;;;;;6192481;23;20313;-85
2022/08/01 03:12:54;;;;;;;;;;;;;;;;;;6217864;23;19939;-84
2022/08/01 03:15:20;;;;;;;;;;;;;;;;;;6193293;23;19915;-86
2022/08/01 03:17:46;;;;;;;;;;;;;;;;;;6218713;23;20486;-86
2022/08/01 03:20:12;;;;;;;;;;;;;;;;;;6190976;23;20260;-86
2022/08/01 03:22:41;;;;;;;;;;;;;;;;;;6192922;23;19939;-85
2022/08/01 03:25:07;;;;;;;;;;;;;;;;;;6191765;23;19982;-86
2022/08/01 03:27:32;;;;;;;;;;;;;;;;;;6189777;23;20265;-86
2022/08/01 03:29:58;;;;;;;;;;;;;;;;;;6218228;23;19912;-85
2022/08/01 03:32:24;;;;;;;;;;;;;;;;;;6195098;23;20269;-86
2022/08/01 03:34:49;;;;;;;;;;;;;;;;;;6191719;23;19915;-86
2022/08/01 03:37:24;;;;;;;;;;;;;;;;;;6191315;23;19911;-86
2022/08/01 03:39:55;;;;;;;;;;;;;;;;;;6191856;23;20230;-86
2022/08/01 03:42:21;;;;;;;;;;;;;;;;;;6218173;23;19912;-85
2022/08/01 03:44:50;;;;;;;;;;;;;;;;;;6191309;23;19912;-85
2022/08/01 03:47:17;;;;;;;;;;;;;;;;;;6192006;23;19915;-86
2022/08/01 03:49:44;;;;;;;;;;;;;;;;;;6194897;23;19958;-85
2022/08/01 03:52:17;;;;;;;;;;;;;;;;;;6194939;23;19916;-87
2022/08/01 03:54:45;;;;;;;;;;;;;;;;;;6189381;23;20329;-86
2022/08/01 03:57:11;;;;;;;;;;;;;;;;;;6157731;23;19899;-86
2022/08/01 03:59:37;;;;;;;;;;;;;;;;;;6170495;23;20724;-85
2022/08/01 04:02:04;;;;;;;;;;;;;;;;;;6194266;23;20243;-85
2022/08/01 04:04:29;;;;;;;;;;;;;;;;;;6194694;23;19961;-85
2022/08/01 04:06:55;;;;;;;;;;;;;;;;;;6192928;23;19912;-85
2022/08/01 04:09:24;;;;;;;;;;;;;;;;;;6195314;23;19977;-85
2022/08/01 04:11:50;;;;;;;;;;;;;;;;;;6196060;23;19921;-85
2022/08/01 04:14:15;;;;;;;;;;;;;;;;;;6194194;23;19912;-85
2022/08/01 04:16:41;;;;;;;;;;;;;;;;;;6195479;23;19924;-85
2022/08/01 04:19:10;;;;;;;;;;;;;;;;;;6196228;23;19912;-85
2022/08/01 04:21:35;;;;;;;;;;;;;;;;;;6193821;23;19912;-86
2022/08/01 04:24:04;;;;;;;;;;;;;;;;;;6193736;23;19917;-85
2022/08/01 04:26:32;;;;;;;;;;;;;;;;;;6172645;22;19911;-87
2022/08/01 04:28:58;;;;;;;;;;;;;;;;;;6190136;23;20155;-86
2022/08/01 04:31:25;;;;;;;;;;;;;;;;;;6208890;23;19935;-87
2022/08/01 04:33:51;;;;;;;;;;;;;;;;;;6192964;23;19965;-87
2022/08/01 04:36:30;;;;;;;;;;;;;;;;;;6187884;22;19948;-87
2022/08/01 04:38:56;;;;;;;;;;;;;;;;;;6215793;23;20302;-86
2022/08/01 04:41:22;;;;;;;;;;;;;;;;;;6190913;23;19915;-86
2022/08/01 04:43:48;;;;;;;;;;;;;;;;;;6190523;23;19942;-87
2022/08/01 04:46:15;;;;;;;;;;;;;;;;;;6156814;23;19911;-87
2022/08/01 04:48:44;;;;;;;;;;;;;;;;;;6176324;23;20020;-88
2022/08/01 04:51:15;;;;;;;;;;;;;;;;;;6190333;23;20253;-86
2022/08/01 04:53:42;;;;;;;;;;;;;;;;;;6184450;23;20294;-87
2022/08/01 04:56:07;;;;;;;;;;;;;;;;;;6183818;23;20220;-87
2022/08/01 04:58:33;;;;;;;;;;;;;;;;;;6183897;23;19939;-85
2022/08/01 05:01:00;;;;;;;;;;;;;;;;;;6172479;23;19907;-87
2022/08/01 05:03:25;;;;;;;;;;;;;;;;;;6184130;23;20002;-84
2022/08/01 05:05:54;;;;;;;;;;;;;;;;;;6222130;23;19987;-88
2022/08/01 05:08:22;;;;;;;;;;;;;;;;;;6138578;23;19911;-88
2022/08/01 05:10:52;;;;;;;;;;;;;;;;;;6128856;23;19926;-87
2022/08/01 05:13:20;;;;;;;;;;;;;;;;;;6173787;23;20345;-88
2022/08/01 05:15:52;;;;;;;;;;;;;;;;;;6151950;23;19955;-89
2022/08/01 05:18:18;;;;;;;;;;;;;;;;;;6188916;23;19911;-88
2022/08/01 05:20:47;;;;;;;;;;;;;;;;;;6178340;23;19918;-88
2022/08/01 05:23:13;;;;;;;;;;;;;;;;;;6152386;23;19915;-88
2022/08/01 05:25:39;;;;;;;;;;;;;;;;;;6159667;23;19911;-88
2022/08/01 05:28:07;;;;;;;;;;;;;;;;;;6150816;23;19939;-87
2022/08/01 05:30:33;;;;;;;;;;;;;;;;;;6158985;23;19911;-88
2022/08/01 05:32:58;;;;;;;;;;;;;;;;;;6161138;23;20210;-88
2022/08/01 05:35:58;;;;;;;;;;;;;;;;;;6167248;23;19939;-89
2022/08/01 05:38:23;;;;;;;;;;;;;;;;;;6191695;23;19911;-89
2022/08/01 05:40:49;;;;;;;;;;;;;;;;;;6187484;23;20635;-89
2022/08/01 05:43:15;;;;;;;;;;;;;;;;;;6188927;23;19919;-89
2022/08/01 05:45:42;;;;;;;;;;;;;;;;;;6186899;23;19943;-87
2022/08/01 05:48:10;;;;;;;;;;;;;;;;;;6188599;23;19942;-87
2022/08/01 05:50:37;;;;;;;;;;;;;;;;;;6191967;23;20239;-87
2022/08/01 05:53:02;;;;;;;;;;;;;;;;;;6187776;23;19993;-87
2022/08/01 05:55:28;;;;;;;;;;;;;;;;;;6192675;23;19927;-87
2022/08/01 05:57:54;;;;;;;;;;;;;;;;;;6191363;23;19965;-88
2022/08/01 06:00:19;;;;;;;;;;;;;;;;;;6187569;23;19939;-89
2022/08/01 06:02:45;;;;;;;;;;;;;;;;;;6186855;23;19950;-89
2022/08/01 06:05:11;;;;;;;;;;;;;;;;;;6188647;23;19912;-88
2022/08/01 06:07:39;;;;;;;;;;;;;;;;;;6177370;23;19935;-89
2022/08/01 06:10:05;;;;;;;;;;;;;;;;;;6189677;23;19916;-89
2022/08/01 06:12:32;;;;;;;;;;;;;;;;;;6183360;23;19977;-88
2022/08/01 06:14:58;;;;;;;;;;;;;;;;;;6186319;23;20349;-88
2022/08/01 06:17:24;;;;;;;;;;;;;;;;;;6188932;23;19915;-89
2022/08/01 06:19:49;;;;;;;;;;;;;;;;;;6187977;23;19934;-88
2022/08/01 06:22:18;;;;;;;;;;;;;;;;;;6189413;23;19951;-89
2022/08/01 06:24:44;;;;;;;;;;;;;;;;;;6189338;23;19911;-88
2022/08/01 06:27:10;;;;;;;;;;;;;;;;;;6213887;23;19931;-87
2022/08/01 06:29:35;;;;;;;;;;;;;;;;;;6179923;23;19912;-87
2022/08/01 06:32:06;;;;;;;;;;;;;;;;;;6217727;23;19944;-87
2022/08/01 06:34:32;;;;;;;;;;;;;;;;;;6186562;23;19998;-88
2022/08/01 06:36:59;;;;;;;;;;;;;;;;;;6186737;23;19918;-87
2022/08/01 06:39:25;;;;;;;;;;;;;;;;;;6188320;23;19947;-88
2022/08/01 06:41:50;;;;;;;;;;;;;;;;;;6189961;23;19931;-87
2022/08/01 06:44:19;;;;;;;;;;;;;;;;;;6146446;23;19946;-88
2022/08/01 06:47:06;;;;;;;;;;;;;;;;;;6176135;22;19934;-89
2022/08/01 06:49:50;;;;;;;;;;;;;;;;;;;;;
2022/08/01 06:52:22;;;;;;;;;;;;;;;;;;6219491;23;19999;-89
2022/08/01 06:54:53;;;;;;;;;;;;;;;;;;6190001;23;19918;-88
2022/08/01 06:57:21;;;;;;;;;;;;;;;;;;6160455;23;20309;-89
2022/08/01 06:59:47;;;;;;;;;;;;;;;;;;6177070;23;20317;-88
2022/08/01 07:02:13;;;;;;;;;;;;;;;;;;6191846;23;20345;-87
2022/08/01 07:04:41;;;;;;;;;;;;;;;;;;6191646;23;19995;-88
2022/08/01 07:07:07;;;;;;;;;;;;;;;;;;6180193;23;19915;-88
2022/08/01 07:09:33;;;;;;;;;;;;;;;;;;6173821;23;19922;-88
2022/08/01 07:12:01;;;;;;;;;;;;;;;;;;6129025;23;19916;-89
2022/08/01 07:14:29;;;;;;;;;;;;;;;;;;6170251;23;19982;-88
2022/08/01 07:16:56;;;;;;;;;;;;;;;;;;6176460;23;19912;-85
2022/08/01 07:19:23;;;;;;;;;;;;;;;;;;6207371;23;19934;-85
2022/08/01 07:21:58;;;;;;;;;;;;;;;;;;6159654;22;19924;-85
2022/08/01 07:24:24;;;;;;;;;;;;;;;;;;6154473;23;19912;-86
2022/08/01 07:26:50;;;;;;;;;;;;;;;;;;6156642;23;20011;-83
2022/08/01 07:29:17;;;;;;;;;;;;;;;;;;6168374;23;19919;-86
2022/08/01 07:31:43;;;;;;;;;;;;;;;;;;6215819;23;19911;-85
2022/08/01 07:34:10;;;;;;;;;;;;;;;;;;6141368;23;20446;-86
2022/08/01 07:36:36;;;;;;;;;;;;;;;;;;6167040;23;20193;-86
2022/08/01 07:39:05;;;;;;;;;;;;;;;;;;6159976;23;19930;-87
2022/08/01 07:41:58;;;;;;;;;;;;;;;;;;6163157;23;20003;-86
2022/08/01 07:44:35;;;;;;;;;;;;;;;;;;6146645;23;19912;-87
2022/08/01 07:47:10;;;;;;;;;;;;;;;;;;6157302;23;19940;-87
2022/08/01 07:49:42;;;;;;;;;;;;;;;;;;6190451;22;20411;-87
2022/08/01 07:52:20;;;;;;;;;;;;;;;;;;6147395;22;19912;-87
2022/08/01 07:54:57;;;;;;;;;;;;;;;;;;6145633;23;21398;-87
2022/08/01 07:57:32;;;;;;;;;;;;;;;;;;6134567;23;19922;-87
2022/08/01 07:59:58;;;;;;;;;;;;;;;;;;6160494;23;19911;-86
2022/08/01 08:02:53;;;;;;;;;;;;;;;;;;;;;
2022/08/01 08:05:20;;;;;;;;;;;;;;;;;;6194241;23;20373;-85
2022/08/01 08:07:47;;;;;;;;;;;;;;;;;;6158864;23;20173;-86
2022/08/01 08:10:19;;;;;;;;;;;;;;;;;;6166278;23;20334;-87
2022/08/01 08:12:48;;;;;;;;;;;;;;;;;;6109767;23;19916;-86
2022/08/01 08:15:14;;;;;;;;;;;;;;;;;;6126962;23;19920;-88
2022/08/01 08:18:05;;;;;;;;;;;;;;;;;;6107438;22;19912;-86
2022/08/01 08:20:43;;;;;;;;;;;;;;;;;;6166318;23;19912;-87
2022/08/01 08:26:02;;;;;;;;;;;;;;;;;;6171430;23;20772;-87
2022/08/01 08:28:38;;;;;;;;;;;;;;;;;;6130645;23;20637;-88
2022/08/01 08:31:08;;;;;;;;;;;;;;;;;;6198229;23;19899;-87
2022/08/01 08:33:36;;;;;;;;;;;;;;;;;;6160210;23;20067;-87
2022/08/01 08:36:26;;;;;;;;;;;;;;;;;;6171561;23;19919;-90
2022/08/01 08:39:13;;;;;;;;;;;;;;;;;;6172023;23;19916;-88
2022/08/01 08:41:49;;;;;;;;;;;;;;;;;;6110333;23;19926;-88
2022/08/01 08:44:41;;;;;;;;;;;;;;;;;;6213552;23;19911;-87
2022/08/01 08:47:07;;;;;;;;;;;;;;;;;;6143532;23;19995;-88
2022/08/01 08:49:34;;;;;;;;;;;;;;;;;;6160386;22;19963;-86
2022/08/01 08:52:00;;;;;;;;;;;;;;;;;;6118023;23;19919;-89
2022/08/01 08:54:29;;;;;;;;;;;;;;;;;;6093760;23;19962;-86
2022/08/01 08:56:57;;;;;;;;;;;;;;;;;;6232529;23;19920;-86
2022/08/01 08:59:24;;;;;;;;;;;;;;;;;;6192748;23;19939;-87
2022/08/01 09:01:50;;;;;;;;;;;;;;;;;;6119846;23;19938;-87
2022/08/01 09:04:24;;;;;;;;;;;;;;;;;;6142139;23;19912;-86
2022/08/01 09:06:53;;;;;;;;;;;;;;;;;;6210545;23;19915;-86
2022/08/01 09:09:32;;;;;;;;;;;;;;;;;;6128281;23;19916;-87
2022/08/01 09:11:58;;;;;;;;;;;;;;;;;;6135804;22;19916;-89
2022/08/01 09:14:31;;;;;;;;;;;;;;;;;;6217856;23;19912;-87
2022/08/01 09:17:07;;;;;;;;;;;;;;;;;;6145220;23;19916;-87
2022/08/01 09:19:37;;;;;;;;;;;;;;;;;;6080906;23;19920;-86
2022/08/01 09:22:26;;;;;;;;;;;;;;;;;;6138092;23;19915;-87
2022/08/01 09:25:08;;;;;;;;;;;;;;;;;;6114812;23;20348;-86
2022/08/01 09:27:46;;;;;;;;;;;;;;;;;;6129698;23;19915;-86
2022/08/01 09:34:09;;;;;;;;;;;;;;;;;;;;;
2022/08/01 09:36:51;;;;;;;;;;;;;;;;;;6160650;23;20762;-88
2022/08/01 09:43:13;;;;;;;;;;;;;;;;;;6055919;23;19987;-88
2022/08/01 09:45:40;;;;;;;;;;;;;;;;;;6078390;23;19943;-88
2022/08/01 09:48:22;;;;;;;;;;;;;;;;;;6119275;23;19919;-89
2022/08/01 09:51:00;;;;;;;;;;;;;;;;;;6145785;23;19945;-88
2022/08/01 09:53:56;;;;;;;;;;;;;;;;;;6160292;23;19947;-86
2022/08/01 09:56:49;;;;;;;;;;;;;;;;;;6126320;23;19915;-85
2022/08/01 09:59:16;;;;;;;;;;;;;;;;;;6114200;23;20352;-87
2022/08/01 10:01:51;;;;;;;;;;;;;;;;;;6162236;23;20355;-84
2022/08/01 10:04:18;;;;;;;;;;;;;;;;;;6133361;23;19926;-86
2022/08/01 10:09:33;;;;;;;;;;;;;;;;;;6182491;23;19927;-85
2022/08/01 10:11:59;;;;;;;;;;;;;;;;;;6176298;23;19933;-84
2022/08/01 10:14:26;;;;;;;;;;;;;;;;;;6169315;23;20303;-84
2022/08/01 10:16:53;;;;;;;;;;;;;;;;;;6169618;23;19916;-84
2022/08/01 10:19:19;;;;;;;;;;;;;;;;;;6170250;23;19919;-84
2022/08/01 10:25:21;;;;;;;;;;;;;;;;;;6115625;23;20327;-87
2022/08/01 10:28:00;;;;;;;;;;;;;;;;;;;;;
2022/08/01 10:33:39;;;;;;;;;;;;;;;;;;6121891;23;20299;-86
2022/08/01 10:36:09;;;;;;;;;;;;;;;;;;6083723;23;19900;-87
2022/08/01 10:41:49;;;;;;;;;;;;;;;;;;6199578;23;19920;-87
2022/08/01 10:44:35;;;;;;;;;;;;;;;;;;6112052;23;20643;-87
2022/08/01 10:50:40;;;;;;;;;;;;;;;;;;6175220;23;19920;-87
2022/08/01 11:08:36;;;;;;;;;;;;;;;;;;6075529;23;19991;-88
2022/08/01 11:11:11;;;;;;;;;;;;;;;;;;6143044;23;19915;-89
2022/08/01 11:13:56;;;;;;;;;;;;;;;;;;6156659;23;19918;-87
2022/08/01 11:16:46;;;;;;;;;;;;;;;;;;6197948;23;19919;-89
2022/08/01 11:23:41;;;;;;;;;;;;;;;;;;6090469;23;19913;-89
2022/08/01 11:26:03;;;;;;;;;;;;;;;;;;6096764;23;19987;-88
2022/08/01 11:28:49;;;;;;;;;;;;;;;;;;6124585;23;19916;-89
2022/08/01 11:31:43;;;;;;;;;;;;;;;;;;6159624;23;20285;-89
2022/08/01 11:34:19;;;;;;;;;;;;;;;;;;6052546;23;19940;-87
2022/08/01 11:36:45;;;;;;;;;;;;;;;;;;6107328;23;19935;-85
2022/08/01 11:39:34;;;;;;;;;;;;;;;;;;6166277;23;19911;-88
2022/08/01 11:42:21;;;;;;;;;;;;;;;;;;6072198;23;19917;-88
2022/08/01 11:45:20;;;;;;;;;;;;;;;;;;6164858;23;19915;-88
2022/08/01 11:47:50;;;;;;;;;;;;;;;;;;6133396;23;19910;-87
2022/08/01 11:50:38;;;;;;;;;;;;;;;;;;6144193;23;20581;-87
2022/08/01 11:53:14;;;;;;;;;;;;;;;;;;6139738;23;19908;-88
2022/08/01 11:56:01;;;;;;;;;;;;;;;;;;6104339;23;19927;-88
2022/08/01 11:58:59;;;;;;;;;;;;;;;;;;6154927;23;20219;-88
2022/08/01 12:01:47;;;;;;;;;;;;;;;;;;6164204;22;20244;-88
2022/08/01 12:04:14;;;;;;;;;;;;;;;;;;6174501;23;19994;-85
2022/08/01 12:06:40;;;;;;;;;;;;;;;;;;6200979;23;19915;-87
2022/08/01 12:09:15;;;;;;;;;;;;;;;;;;6192458;23;19922;-85
2022/08/01 12:11:41;;;;;;;;;;;;;;;;;;6166313;23;19951;-87
2022/08/01 12:14:07;;;;;;;;;;;;;;;;;;6150369;23;20325;-86
2022/08/01 12:16:33;;;;;;;;;;;;;;;;;;6171918;23;20492;-86
2022/08/01 12:18:59;;;;;;;;;;;;;;;;;;6168968;23;19912;-85
2022/08/01 12:21:26;;;;;;;;;;;;;;;;;;6167838;23;19935;-85
2022/08/01 12:24:01;;;;;;;;;;;;;;;;;;6171780;23;19947;-86
2022/08/01 12:26:42;;;;;;;;;;;;;;;;;;6214201;23;20565;-87
2022/08/01 12:29:10;;;;;;;;;;;;;;;;;;6186785;23;19943;-86
2022/08/01 12:31:36;;;;;;;;;;;;;;;;;;6203413;23;20350;-84
2022/08/01 12:34:21;;;;;;;;;;;;;;;;;;6100622;23;19950;-86
2022/08/01 12:36:46;;;;;;;;;;;;;;;;;;6146418;23;19927;-87
2022/08/01 12:39:15;;;;;;;;;;;;;;;;;;6204936;23;19922;-88
2022/08/01 12:41:43;;;;;;;;;;;;;;;;;;6143343;23;19916;-87
2022/08/01 12:44:15;;;;;;;;;;;;;;;;;;6152446;23;19923;-87
2022/08/01 12:46:41;;;;;;;;;;;;;;;;;;6166903;23;19916;-88
2022/08/01 12:49:07;;;;;;;;;;;;;;;;;;6164830;23;20322;-86
2022/08/01 12:51:33;;;;;;;;;;;;;;;;;;6170814;22;19914;-87
2022/08/01 12:53:59;;;;;;;;;;;;;;;;;;6174082;23;20260;-86
2022/08/01 12:56:35;;;;;;;;;;;;;;;;;;6159271;23;19919;-86
2022/08/01 12:59:20;;;;;;;;;;;;;;;;;;6211148;23;20385;-87
2022/08/01 13:01:46;;;;;;;;;;;;;;;;;;6137440;22;19965;-85
2022/08/01 13:04:12;;;;;;;;;;;;;;;;;;6123267;22;19911;-86
2022/08/01 13:06:44;;;;;;;;;;;;;;;;;;6169942;23;19915;-87
2022/08/01 13:09:15;;;;;;;;;;;;;;;;;;6172800;23;20334;-87
2022/08/01 13:11:49;;;;;;;;;;;;;;;;;;6154548;23;20713;-88
2022/08/01 13:14:30;;;;;;;;;;;;;;;;;;6126947;23;19974;-88
2022/08/01 13:16:56;;;;;;;;;;;;;;;;;;6175243;23;19943;-90
2022/08/01 13:19:28;;;;;;;;;;;;;;;;;;6166829;23;20326;-87
2022/08/01 13:21:57;;;;;;;;;;;;;;;;;;6150050;23;20355;-87
2022/08/01 13:24:47;;;;;;;;;;;;;;;;;;6184503;23;19926;-87
2022/08/01 13:27:29;;;;;;;;;;;;;;;;;;6204428;23;19924;-87
2022/08/01 13:32:44;;;;;;;;;;;;;;;;;;6163478;23;19939;-87
2022/08/01 13:35:14;;;;;;;;;;;;;;;;;;6176681;23;19911;-88
2022/08/01 13:37:43;;;;;;;;;;;;;;;;;;6124161;23;19911;-87
2022/08/01 13:40:18;;;;;;;;;;;;;;;;;;6145080;23;19911;-88
2022/08/01 13:42:47;;;;;;;;;;;;;;;;;;6155838;22;19915;-87
2022/08/01 13:45:14;;;;;;;;;;;;;;;;;;6115367;23;19998;-86
2022/08/01 13:47:39;;;;;;;;;;;;;;;;;;6197348;23;19911;-87
2022/08/01 13:50:05;;;;;;;;;;;;;;;;;;6171108;23;19922;-85
2022/08/01 13:55:20;;;;;;;;;;;;;;;;;;6143707;23;19988;-84
2022/08/01 13:57:53;;;;;;;;;;;;;;;;;;6166442;23;19973;-88
2022/08/01 14:00:31;;;;;;;;;;;;;;;;;;6111548;23;19916;-89
2022/08/01 14:03:01;;;;;;;;;;;;;;;;;;6153142;23;20162;-89
2022/08/01 14:05:34;;;;;;;;;;;;;;;;;;6174937;23;19915;-89
2022/08/01 14:08:04;;;;;;;;;;;;;;;;;;6178962;23;19915;-89
2022/08/01 14:10:39;;;;;;;;;;;;;;;;;;6133474;23;20373;-88
2022/08/01 14:13:09;;;;;;;;;;;;;;;;;;6174672;23;20541;-89
2022/08/01 14:15:52;;;;;;;;;;;;;;;;;;6104118;23;20187;-88
2022/08/01 14:18:39;;;;;;;;;;;;;;;;;;6110459;23;19994;-87
2022/08/01 14:21:09;;;;;;;;;;;;;;;;;;6104510;23;19939;-89
2022/08/01 14:23:39;;;;;;;;;;;;;;;;;;6118856;23;19912;-89
2022/08/01 14:26:05;;;;;;;;;;;;;;;;;;6128146;23;20380;-89
2022/08/01 14:28:34;;;;;;;;;;;;;;;;;;6136101;22;20206;-88
2022/08/01 14:31:13;;;;;;;;;;;;;;;;;;6108466;23;19972;-90
2022/08/01 14:33:56;;;;;;;;;;;;;;;;;;6135856;23;20128;-88
2022/08/01 14:36:22;;;;;;;;;;;;;;;;;;6127661;23;19912;-90
2022/08/01 14:39:05;;;;;;;;;;;;;;;;;;6172152;23;19920;-89
2022/08/01 14:41:44;;;;;;;;;;;;;;;;;;6187372;23;19917;-89
2022/08/01 14:44:21;;;;;;;;;;;;;;;;;;6162514;23;20337;-90
2022/08/01 14:47:01;;;;;;;;;;;;;;;;;;6223051;22;19946;-89
2022/08/01 14:49:27;;;;;;;;;;;;;;;;;;6143311;23;19912;-85
2022/08/01 14:51:53;;;;;;;;;;;;;;;;;;6173733;23;20003;-85
2022/08/01 14:54:23;;;;;;;;;;;;;;;;;;6153467;23;20111;-88
2022/08/01 14:56:56;;;;;;;;;;;;;;;;;;6111237;23;20007;-89
2022/08/01 14:59:34;;;;;;;;;;;;;;;;;;6178102;22;19998;-90
2022/08/01 15:02:09;;;;;;;;;;;;;;;;;;6146799;23;19912;-89
2022/08/01 15:04:35;;;;;;;;;;;;;;;;;;6190883;23;20394;-86
2022/08/01 15:07:02;;;;;;;;;;;;;;;;;;6160255;22;19943;-86
2022/08/01 15:09:28;;;;;;;;;;;;;;;;;;6103823;23;19924;-88
2022/08/01 15:11:54;;;;;;;;;;;;;;;;;;6128990;23;19924;-87
2022/08/01 15:17:06;;;;;;;;;;;;;;;;;;6225688;23;19918;-85
2022/08/01 15:19:32;;;;;;;;;;;;;;;;;;6170845;23;20002;-85
2022/08/01 15:22:00;;;;;;;;;;;;;;;;;;6188716;23;20365;-86
2022/08/01 15:24:26;;;;;;;;;;;;;;;;;;6189262;23;19922;-85
2022/08/01 15:26:51;;;;;;;;;;;;;;;;;;6147831;23;20360;-85
2022/08/01 15:29:18;;;;;;;;;;;;;;;;;;6168947;23;19920;-85
2022/08/01 15:35:09;;;;;;;;;;;;;;;;;;6134198;23;19916;-90
2022/08/01 15:37:58;;;;;;;;;;;;;;;;;;6138357;23;19916;-88
2022/08/01 15:44:22;;;;;;;;;;;;;;;;;;6231891;23;20486;-90
2022/08/01 15:50:12;;;;;;;;;;;;;;;;;;6027081;23;19987;-85
2022/08/01 15:52:38;;;;;;;;;;;;;;;;;;6095098;23;19985;-85
2022/08/01 15:55:04;;;;;;;;;;;;;;;;;;6153806;23;20296;-85
2022/08/01 15:57:29;;;;;;;;;;;;;;;;;;6215297;23;19905;-84
2022/08/01 15:59:55;;;;;;;;;;;;;;;;;;6177529;22;19911;-84
2022/08/01 16:02:21;;;;;;;;;;;;;;;;;;6188963;23;19912;-86
2022/08/01 16:04:47;;;;;;;;;;;;;;;;;;6191162;23;19919;-85
2022/08/01 16:07:13;;;;;;;;;;;;;;;;;;6178869;23;19912;-86
2022/08/01 16:09:38;;;;;;;;;;;;;;;;;;6189784;23;19942;-85
2022/08/01 16:12:04;;;;;;;;;;;;;;;;;;6183915;23;20412;-86
2022/08/01 16:14:33;;;;;;;;;;;;;;;;;;6211978;23;20010;-86
2022/08/01 16:16:59;;;;;;;;;;;;;;;;;;6174362;23;19946;-87
2022/08/01 16:19:28;;;;;;;;;;;;;;;;;;6185768;23;19923;-86
2022/08/01 16:21:54;;;;;;;;;;;;;;;;;;6218908;22;20234;-86
2022/08/01 16:24:27;;;;;;;;;;;;;;;;;;6157059;23;20318;-86
2022/08/01 16:26:57;;;;;;;;;;;;;;;;;;6135418;23;20381;-86
2022/08/01 16:29:24;;;;;;;;;;;;;;;;;;6152854;23;19915;-86
2022/08/01 16:31:50;;;;;;;;;;;;;;;;;;6158817;23;19911;-86
2022/08/01 16:34:16;;;;;;;;;;;;;;;;;;6187195;23;19970;-86
2022/08/01 16:36:43;;;;;;;;;;;;;;;;;;6234435;23;19915;-86
2022/08/01 16:39:08;;;;;;;;;;;;;;;;;;6207696;22;19938;-86
2022/08/01 16:41:34;;;;;;;;;;;;;;;;;;6193854;23;19919;-86
2022/08/01 16:44:00;;;;;;;;;;;;;;;;;;6174462;23;19947;-85
2022/08/01 16:46:26;;;;;;;;;;;;;;;;;;6166953;23;19949;-86
2022/08/01 16:48:55;;;;;;;;;;;;;;;;;;6173611;23;19987;-86
2022/08/01 16:51:22;;;;;;;;;;;;;;;;;;6189212;23;19912;-86
2022/08/01 16:53:51;;;;;;;;;;;;;;;;;;6147143;23;19936;-86
2022/08/01 16:56:19;;;;;;;;;;;;;;;;;;6145109;23;19928;-87
2022/08/01 16:58:46;;;;;;;;;;;;;;;;;;6153293;22;19916;-86
2022/08/01 17:01:13;;;;;;;;;;;;;;;;;;6209200;23;19946;-86
2022/08/01 17:03:39;;;;;;;;;;;;;;;;;;6182251;23;19955;-86
2022/08/01 17:06:08;;;;;;;;;;;;;;;;;;6185595;23;20006;-86
2022/08/01 17:08:42;;;;;;;;;;;;;;;;;;6185777;23;19923;-84
2022/08/01 17:11:15;;;;;;;;;;;;;;;;;;6114942;23;19950;-85
2022/08/01 17:13:41;;;;;;;;;;;;;;;;;;6153374;22;19931;-85
2022/08/01 17:16:13;;;;;;;;;;;;;;;;;;6144663;23;20237;-86
2022/08/01 17:18:40;;;;;;;;;;;;;;;;;;6165884;23;20261;-85
2022/08/01 17:21:07;;;;;;;;;;;;;;;;;;6141085;23;19924;-85
2022/08/01 17:23:34;;;;;;;;;;;;;;;;;;6141447;23;19927;-85
2022/08/01 17:26:01;;;;;;;;;;;;;;;;;;6156612;23;19916;-85
2022/08/01 17:28:39;;;;;;;;;;;;;;;;;;6208067;23;19991;-85
2022/08/01 17:31:05;;;;;;;;;;;;;;;;;;6110006;23;20501;-85
2022/08/01 17:33:31;;;;;;;;;;;;;;;;;;6169083;22;19915;-84
2022/08/01 17:35:59;;;;;;;;;;;;;;;;;;6152830;23;19913;-85
2022/08/01 17:38:35;;;;;;;;;;;;;;;;;;6122573;23;20323;-85
2022/08/01 17:41:00;;;;;;;;;;;;;;;;;;6108487;23;20410;-84
2022/08/01 17:43:29;;;;;;;;;;;;;;;;;;6144799;23;19916;-85
2022/08/01 17:45:59;;;;;;;;;;;;;;;;;;6170672;23;20134;-84
2022/08/01 17:48:27;;;;;;;;;;;;;;;;;;6126316;23;19916;-85
2022/08/01 17:50:56;;;;;;;;;;;;;;;;;;6138478;23;19919;-84
2022/08/01 17:53:24;;;;;;;;;;;;;;;;;;6161442;23;20155;-85
2022/08/01 17:55:50;;;;;;;;;;;;;;;;;;6148256;23;19947;-85
2022/08/01 17:58:19;;;;;;;;;;;;;;;;;;6133844;23;19923;-85
2022/08/01 18:00:57;;;;;;;;;;;;;;;;;;6121261;23;19925;-85
2022/08/01 18:03:44;;;;;;;;;;;;;;;;;;6153592;23;19912;-85
2022/08/01 18:06:28;;;;;;;;;;;;;;;;;;6146169;22;19955;-85
2022/08/01 18:09:21;;;;;;;;;;;;;;;;;;6149818;23;19916;-84
2022/08/01 18:12:04;;;;;;;;;;;;;;;;;;6134540;23;19943;-85
2022/08/01 18:14:30;;;;;;;;;;;;;;;;;;4722546;23;33489673;-86